This is the latest recevied weather packets stored in our database for station/object N5ATR. If no packets are shown the sender has not sent any weather packets the latest 1 day(s).
| Time | Temp. | Humidity | Pressure | Rain* | Wind** | Luminosity | Snow |
|---|---|---|---|---|---|---|---|
| 1778057421 | 3.89° C | 80% | 1012.5 hPa | 0 mm | 1.34 m/s, 235° | 0 W/m² | - |
| 1778057118 | 3.89° C | 79% | 1012.8 hPa | 0 mm | 1.79 m/s, 270° | 0 W/m² | - |
| 1778056814 | 3.33° C | 84% | 1012.4 hPa | 0 mm | 0.89 m/s, 291° | 0 W/m² | - |
| 1778056512 | 3.33° C | 84% | 1012.5 hPa | 0 mm | 0.89 m/s, 291° | 0 W/m² | - |
| 1778056209 | 3.33° C | 85% | 1012.7 hPa | 0 mm | 0.89 m/s, 296° | 0 W/m² | - |
| 1778055906 | 3.89° C | 84% | 1012.7 hPa | 0 mm | 0.45 m/s, 318° | 0 W/m² | - |
| 1778055601 | 3.89° C | 83% | 1012.7 hPa | 0 mm | 0.89 m/s, 290° | 0 W/m² | - |
| 1778055300 | 4.44° C | 79% | 1012.8 hPa | 0 mm | 0.89 m/s, 265° | 0 W/m² | - |
| 1778054997 | 4.44° C | 79% | 1012.8 hPa | 0 mm | 0.89 m/s, 273° | 0 W/m² | - |
| 1778054694 | 4.44° C | 79% | 1012.9 hPa | 0 mm | 0.89 m/s, 311° | 0 W/m² | - |
| 1778054391 | 4.44° C | 80% | 1012.9 hPa | 0 mm | 1.79 m/s, 321° | 0 W/m² | - |
| 1778054089 | 5° C | 78% | 1013.2 hPa | 0 mm | 1.34 m/s, 320° | 0 W/m² | - |
| 1778053785 | 5° C | 77% | 1013 hPa | 0 mm | 1.79 m/s, 326° | 0 W/m² | - |
| 1778053482 | 5° C | 78% | 1013.2 hPa | 0 mm | 0.89 m/s, 318° | 0 W/m² | - |
| 1778053179 | 5.56° C | 78% | 1012.9 hPa | 0 mm | 1.34 m/s, 314° | 0 W/m² | - |
| 1778052877 | 5° C | 81% | 1013 hPa | 0 mm | 0.89 m/s, 328° | 0 W/m² | - |
| 1778052575 | 5.56° C | 80% | 1013 hPa | 0 mm | 0.89 m/s, 321° | 0 W/m² | - |
| 1778052272 | 5.56° C | 80% | 1012.9 hPa | 0 mm | 1.34 m/s, 311° | 0 W/m² | - |
| 1778051970 | 5.56° C | 80% | 1013 hPa | 0 mm | 1.34 m/s, 322° | 0 W/m² | - |
| 1778051667 | 5.56° C | 81% | 1012.9 hPa | 0 mm | 0.89 m/s, 321° | 0 W/m² | - |
| 1778051364 | 5.56° C | 82% | 1013 hPa | 0 mm | 1.34 m/s, 320° | 0 W/m² | - |
| 1778051061 | 5.56° C | 81% | 1013.2 hPa | 0 mm | 0.45 m/s, 344° | 0 W/m² | - |
| 1778050758 | 6.11° C | 80% | 1013 hPa | 0 mm | 0.89 m/s, 325° | 0 W/m² | - |
| 1778050456 | 6.11° C | 80% | 1013.2 hPa | 0 mm | 0.89 m/s, 337° | 0 W/m² | - |
| 1778050152 | 6.11° C | 79% | 1013.2 hPa | 0 mm | 1.34 m/s, 292° | 0 W/m² | - |
* Rain latest hour (hover to see other rain measurements)
** Current wind speed in m/s (hover to see current wind gust speed)